Terminal Aerodrome Forecast
Issued by NWS

Home | Current Version | Previous Version | Text Only | Print | Product List | Glossary On
Versions: 1 2 3 4 5 6 7 8 9 10 11 12 13 14 15 16 17 18
704
FTUS45 KVEF 302232 AAA
TAFBIH
TAF AMD
KBIH 302232Z 3023/3118 27010G18KT P6SM SCT120 BKN250
     FM310200 27011KT P6SM SCT120 BKN250
     FM310500 32008KT P6SM SCT120 BKN250=

USA.gov is the U.S. government's official web portal to all federal, state and local government web resources and services.